sensor_id;sensor_type;location;lat;lon;timestamp;P1;durP1;ratioP1;P2;durP2;ratioP2
35795;SDS011;21916;52.428;13.302;2023-05-10T00:01:31;9.02;;;5.53;;
35795;SDS011;21916;52.428;13.302;2023-05-10T00:03:57;8.95;;;5.70;;
35795;SDS011;21916;52.428;13.302;2023-05-10T00:06:23;8.48;;;5.07;;
35795;SDS011;21916;52.428;13.302;2023-05-10T00:08:49;7.70;;;4.97;;
35795;SDS011;21916;52.428;13.302;2023-05-10T00:11:15;8.77;;;5.95;;
35795;SDS011;21916;52.428;13.302;2023-05-10T00:13:41;10.30;;;5.40;;
35795;SDS011;21916;52.428;13.302;2023-05-10T00:16:06;7.20;;;5.68;;
35795;SDS011;21916;52.428;13.302;2023-05-10T00:18:32;11.13;;;5.90;;
35795;SDS011;21916;52.428;13.302;2023-05-10T00:20:58;8.77;;;5.63;;
35795;SDS011;21916;52.428;13.302;2023-05-10T00:23:24;10.32;;;6.05;;
35795;SDS011;21916;52.428;13.302;2023-05-10T00:25:50;6.82;;;5.38;;
35795;SDS011;21916;52.428;13.302;2023-05-10T00:28:16;9.15;;;5.57;;
35795;SDS011;21916;52.428;13.302;2023-05-10T00:30:42;8.10;;;5.10;;
35795;SDS011;21916;52.428;13.302;2023-05-10T00:33:08;8.48;;;5.88;;
35795;SDS011;21916;52.428;13.302;2023-05-10T00:35:33;7.43;;;5.63;;
35795;SDS011;21916;52.428;13.302;2023-05-10T00:37:59;10.13;;;6.32;;
35795;SDS011;21916;52.428;13.302;2023-05-10T00:40:25;7.32;;;5.63;;
35795;SDS011;21916;52.428;13.302;2023-05-10T00:42:56;8.55;;;5.68;;
35795;SDS011;21916;52.428;13.302;2023-05-10T00:45:22;10.70;;;6.15;;
35795;SDS011;21916;52.428;13.302;2023-05-10T00:47:49;8.30;;;5.47;;
35795;SDS011;21916;52.428;13.302;2023-05-10T00:50:17;8.27;;;5.90;;
35795;SDS011;21916;52.428;13.302;2023-05-10T00:52:43;12.50;;;6.40;;
35795;SDS011;21916;52.428;13.302;2023-05-10T00:55:09;9.27;;;6.50;;
35795;SDS011;21916;52.428;13.302;2023-05-10T00:57:37;10.73;;;6.65;;
35795;SDS011;21916;52.428;13.302;2023-05-10T01:00:04;11.50;;;6.05;;
35795;SDS011;21916;52.428;13.302;2023-05-10T01:02:30;8.27;;;6.18;;
35795;SDS011;21916;52.428;13.302;2023-05-10T01:04:56;9.00;;;5.35;;
35795;SDS011;21916;52.428;13.302;2023-05-10T01:07:22;8.85;;;5.80;;
35795;SDS011;21916;52.428;13.302;2023-05-10T01:09:48;8.15;;;6.10;;
35795;SDS011;21916;52.428;13.302;2023-05-10T01:12:14;8.95;;;5.95;;
35795;SDS011;21916;52.428;13.302;2023-05-10T01:14:40;7.95;;;5.65;;
35795;SDS011;21916;52.428;13.302;2023-05-10T01:17:06;9.07;;;6.00;;
35795;SDS011;21916;52.428;13.302;2023-05-10T01:19:34;11.95;;;6.28;;
35795;SDS011;21916;52.428;13.302;2023-05-10T01:28:08;13.13;;;6.43;;
35795;SDS011;21916;52.428;13.302;2023-05-10T01:36:48;8.90;;;6.03;;
35795;SDS011;21916;52.428;13.302;2023-05-10T01:41:52;9.63;;;6.55;;
35795;SDS011;21916;52.428;13.302;2023-05-10T01:47:16;9.75;;;6.43;;
35795;SDS011;21916;52.428;13.302;2023-05-10T01:49:55;11.23;;;6.35;;
35795;SDS011;21916;52.428;13.302;2023-05-10T01:52:25;8.30;;;5.53;;
35795;SDS011;21916;52.428;13.302;2023-05-10T01:54:56;9.40;;;6.03;;
35795;SDS011;21916;52.428;13.302;2023-05-10T01:57:30;9.55;;;6.00;;
35795;SDS011;21916;52.428;13.302;2023-05-10T02:00:00;10.48;;;6.03;;
35795;SDS011;21916;52.428;13.302;2023-05-10T02:02:40;8.88;;;6.68;;
35795;SDS011;21916;52.428;13.302;2023-05-10T02:05:11;9.80;;;6.57;;
35795;SDS011;21916;52.428;13.302;2023-05-10T02:07:39;9.93;;;6.15;;
35795;SDS011;21916;52.428;13.302;2023-05-10T02:10:07;11.07;;;6.78;;
35795;SDS011;21916;52.428;13.302;2023-05-10T02:12:35;8.48;;;5.93;;
35795;SDS011;21916;52.428;13.302;2023-05-10T02:15:05;11.35;;;6.65;;
35795;SDS011;21916;52.428;13.302;2023-05-10T02:17:32;8.30;;;6.38;;
35795;SDS011;21916;52.428;13.302;2023-05-10T02:19:59;9.80;;;6.72;;
35795;SDS011;21916;52.428;13.302;2023-05-10T02:22:27;7.85;;;5.82;;
35795;SDS011;21916;52.428;13.302;2023-05-10T02:24:54;8.32;;;6.07;;
35795;SDS011;21916;52.428;13.302;2023-05-10T02:27:23;10.45;;;6.45;;
35795;SDS011;21916;52.428;13.302;2023-05-10T02:29:50;9.18;;;6.75;;
35795;SDS011;21916;52.428;13.302;2023-05-10T02:32:17;11.07;;;6.90;;
35795;SDS011;21916;52.428;13.302;2023-05-10T02:34:44;11.38;;;7.82;;
35795;SDS011;21916;52.428;13.302;2023-05-10T02:37:17;9.63;;;6.72;;
35795;SDS011;21916;52.428;13.302;2023-05-10T02:39:46;7.97;;;6.05;;
35795;SDS011;21916;52.428;13.302;2023-05-10T02:42:16;9.77;;;7.47;;
35795;SDS011;21916;52.428;13.302;2023-05-10T02:44:45;10.07;;;7.18;;
35795;SDS011;21916;52.428;13.302;2023-05-10T02:47:14;11.75;;;6.25;;
35795;SDS011;21916;52.428;13.302;2023-05-10T02:49:40;9.02;;;6.72;;
35795;SDS011;21916;52.428;13.302;2023-05-10T02:52:07;8.73;;;6.85;;
35795;SDS011;21916;52.428;13.302;2023-05-10T02:54:41;12.65;;;7.85;;
35795;SDS011;21916;52.428;13.302;2023-05-10T02:57:11;9.52;;;6.95;;
35795;SDS011;21916;52.428;13.302;2023-05-10T02:59:44;11.82;;;7.32;;
35795;SDS011;21916;52.428;13.302;2023-05-10T03:02:12;8.50;;;6.07;;
35795;SDS011;21916;52.428;13.302;2023-05-10T03:04:38;8.50;;;6.57;;
35795;SDS011;21916;52.428;13.302;2023-05-10T03:07:04;11.68;;;7.30;;
35795;SDS011;21916;52.428;13.302;2023-05-10T03:09:30;8.95;;;7.25;;
35795;SDS011;21916;52.428;13.302;2023-05-10T03:12:04;8.27;;;7.25;;
35795;SDS011;21916;52.428;13.302;2023-05-10T03:17:19;9.50;;;7.00;;
35795;SDS011;21916;52.428;13.302;2023-05-10T03:20:08;9.25;;;6.78;;
35795;SDS011;21916;52.428;13.302;2023-05-10T03:22:38;8.77;;;7.07;;
35795;SDS011;21916;52.428;13.302;2023-05-10T03:25:10;11.60;;;6.75;;
35795;SDS011;21916;52.428;13.302;2023-05-10T03:27:39;8.98;;;6.82;;
35795;SDS011;21916;52.428;13.302;2023-05-10T03:30:07;12.35;;;7.22;;
35795;SDS011;21916;52.428;13.302;2023-05-10T03:32:35;9.57;;;7.07;;
35795;SDS011;21916;52.428;13.302;2023-05-10T03:35:12;10.70;;;6.47;;
35795;SDS011;21916;52.428;13.302;2023-05-10T03:37:41;10.77;;;7.20;;
35795;SDS011;21916;52.428;13.302;2023-05-10T03:40:07;12.80;;;6.80;;
35795;SDS011;21916;52.428;13.302;2023-05-10T03:42:36;11.80;;;7.03;;
35795;SDS011;21916;52.428;13.302;2023-05-10T03:45:02;12.00;;;7.15;;
35795;SDS011;21916;52.428;13.302;2023-05-10T03:47:29;10.15;;;7.03;;
35795;SDS011;21916;52.428;13.302;2023-05-10T03:49:55;11.45;;;7.22;;
35795;SDS011;21916;52.428;13.302;2023-05-10T03:52:21;9.18;;;6.45;;
35795;SDS011;21916;52.428;13.302;2023-05-10T03:54:48;13.68;;;6.90;;
35795;SDS011;21916;52.428;13.302;2023-05-10T03:57:14;9.88;;;7.45;;
35795;SDS011;21916;52.428;13.302;2023-05-10T03:59:40;10.52;;;6.57;;
35795;SDS011;21916;52.428;13.302;2023-05-10T04:02:06;9.95;;;6.30;;
35795;SDS011;21916;52.428;13.302;2023-05-10T04:04:31;10.43;;;6.60;;
35795;SDS011;21916;52.428;13.302;2023-05-10T04:06:57;12.52;;;6.32;;
35795;SDS011;21916;52.428;13.302;2023-05-10T04:09:23;13.18;;;6.47;;
35795;SDS011;21916;52.428;13.302;2023-05-10T04:11:49;8.52;;;6.25;;
35795;SDS011;21916;52.428;13.302;2023-05-10T04:14:15;10.85;;;6.10;;
35795;SDS011;21916;52.428;13.302;2023-05-10T04:16:41;9.82;;;6.43;;
35795;SDS011;21916;52.428;13.302;2023-05-10T04:19:07;8.25;;;5.38;;
35795;SDS011;21916;52.428;13.302;2023-05-10T04:21:33;10.52;;;5.45;;
35795;SDS011;21916;52.428;13.302;2023-05-10T04:23:59;9.77;;;5.90;;
35795;SDS011;21916;52.428;13.302;2023-05-10T04:26:25;7.32;;;5.53;;
35795;SDS011;21916;52.428;13.302;2023-05-10T04:28:51;9.13;;;5.35;;
35795;SDS011;21916;52.428;13.302;2023-05-10T04:31:17;11.15;;;6.07;;
35795;SDS011;21916;52.428;13.302;2023-05-10T04:33:42;9.30;;;6.13;;
35795;SDS011;21916;52.428;13.302;2023-05-10T04:36:08;11.63;;;6.32;;
35795;SDS011;21916;52.428;13.302;2023-05-10T04:38:34;8.98;;;5.57;;
35795;SDS011;21916;52.428;13.302;2023-05-10T04:41:04;8.20;;;5.78;;
35795;SDS011;21916;52.428;13.302;2023-05-10T04:43:34;7.55;;;5.00;;
35795;SDS011;21916;52.428;13.302;2023-05-10T04:46:00;7.80;;;4.80;;
35795;SDS011;21916;52.428;13.302;2023-05-10T04:48:26;11.65;;;5.55;;
35795;SDS011;21916;52.428;13.302;2023-05-10T04:50:52;8.45;;;5.78;;
35795;SDS011;21916;52.428;13.302;2023-05-10T04:53:18;24.63;;;6.90;;
35795;SDS011;21916;52.428;13.302;2023-05-10T04:55:44;13.95;;;5.47;;
35795;SDS011;21916;52.428;13.302;2023-05-10T04:58:10;11.00;;;5.28;;
35795;SDS011;21916;52.428;13.302;2023-05-10T05:00:36;6.25;;;4.88;;
35795;SDS011;21916;52.428;13.302;2023-05-10T05:03:02;10.52;;;5.22;;
35795;SDS011;21916;52.428;13.302;2023-05-10T05:05:28;8.27;;;5.10;;
35795;SDS011;21916;52.428;13.302;2023-05-10T05:07:54;12.05;;;5.05;;
35795;SDS011;21916;52.428;13.302;2023-05-10T05:10:19;7.75;;;4.65;;
35795;SDS011;21916;52.428;13.302;2023-05-10T05:12:45;5.97;;;4.70;;
35795;SDS011;21916;52.428;13.302;2023-05-10T05:15:11;8.50;;;5.13;;
35795;SDS011;21916;52.428;13.302;2023-05-10T05:17:37;12.38;;;5.15;;
35795;SDS011;21916;52.428;13.302;2023-05-10T05:20:03;6.80;;;4.60;;
35795;SDS011;21916;52.428;13.302;2023-05-10T05:22:29;12.38;;;4.60;;
35795;SDS011;21916;52.428;13.302;2023-05-10T05:24:55;6.53;;;4.55;;
35795;SDS011;21916;52.428;13.302;2023-05-10T05:27:23;9.52;;;4.15;;
35795;SDS011;21916;52.428;13.302;2023-05-10T05:29:55;8.80;;;4.60;;
35795;SDS011;21916;52.428;13.302;2023-05-10T05:32:21;5.60;;;4.22;;
35795;SDS011;21916;52.428;13.302;2023-05-10T05:34:47;6.70;;;4.18;;
35795;SDS011;21916;52.428;13.302;2023-05-10T05:37:14;7.95;;;4.45;;
35795;SDS011;21916;52.428;13.302;2023-05-10T05:39:41;4.70;;;3.60;;
35795;SDS011;21916;52.428;13.302;2023-05-10T05:42:08;6.22;;;4.40;;
35795;SDS011;21916;52.428;13.302;2023-05-10T05:44:34;5.72;;;4.30;;
35795;SDS011;21916;52.428;13.302;2023-05-10T05:47:00;7.22;;;3.80;;
35795;SDS011;21916;52.428;13.302;2023-05-10T05:49:26;8.45;;;3.78;;
35795;SDS011;21916;52.428;13.302;2023-05-10T05:51:52;5.40;;;3.78;;
35795;SDS011;21916;52.428;13.302;2023-05-10T05:54:18;7.13;;;3.85;;
35795;SDS011;21916;52.428;13.302;2023-05-10T05:56:44;9.10;;;4.13;;
35795;SDS011;21916;52.428;13.302;2023-05-10T05:59:10;7.53;;;4.15;;
35795;SDS011;21916;52.428;13.302;2023-05-10T06:01:36;6.00;;;3.53;;
35795;SDS011;21916;52.428;13.302;2023-05-10T06:04:03;6.85;;;4.03;;
35795;SDS011;21916;52.428;13.302;2023-05-10T06:06:29;5.38;;;3.42;;
35795;SDS011;21916;52.428;13.302;2023-05-10T06:08:54;5.90;;;2.83;;
35795;SDS011;21916;52.428;13.302;2023-05-10T06:11:20;5.18;;;3.22;;
35795;SDS011;21916;52.428;13.302;2023-05-10T06:13:46;6.18;;;3.30;;
35795;SDS011;21916;52.428;13.302;2023-05-10T06:16:12;5.45;;;3.47;;
35795;SDS011;21916;52.428;13.302;2023-05-10T06:18:38;5.20;;;2.90;;
35795;SDS011;21916;52.428;13.302;2023-05-10T06:21:04;4.45;;;3.42;;
35795;SDS011;21916;52.428;13.302;2023-05-10T06:23:30;4.93;;;3.28;;
35795;SDS011;21916;52.428;13.302;2023-05-10T06:25:56;5.30;;;2.97;;
35795;SDS011;21916;52.428;13.302;2023-05-10T06:28:22;6.45;;;3.33;;
35795;SDS011;21916;52.428;13.302;2023-05-10T06:30:48;7.47;;;3.33;;
35795;SDS011;21916;52.428;13.302;2023-05-10T06:33:14;7.80;;;3.55;;
35795;SDS011;21916;52.428;13.302;2023-05-10T06:35:41;5.93;;;3.03;;
35795;SDS011;21916;52.428;13.302;2023-05-10T06:38:07;6.55;;;3.08;;
35795;SDS011;21916;52.428;13.302;2023-05-10T06:40:33;4.70;;;3.08;;
35795;SDS011;21916;52.428;13.302;2023-05-10T06:42:59;12.45;;;3.03;;
35795;SDS011;21916;52.428;13.302;2023-05-10T06:45:25;4.55;;;2.90;;
35795;SDS011;21916;52.428;13.302;2023-05-10T06:47:51;4.38;;;2.83;;
35795;SDS011;21916;52.428;13.302;2023-05-10T06:50:17;5.43;;;3.33;;
35795;SDS011;21916;52.428;13.302;2023-05-10T06:52:42;5.88;;;2.95;;
35795;SDS011;21916;52.428;13.302;2023-05-10T06:55:08;4.97;;;3.05;;
35795;SDS011;21916;52.428;13.302;2023-05-10T06:57:35;6.28;;;2.92;;
35795;SDS011;21916;52.428;13.302;2023-05-10T07:00:01;5.82;;;2.70;;
35795;SDS011;21916;52.428;13.302;2023-05-10T07:02:29;4.95;;;3.28;;
35795;SDS011;21916;52.428;13.302;2023-05-10T07:04:55;4.72;;;2.83;;
35795;SDS011;21916;52.428;13.302;2023-05-10T07:07:21;4.78;;;2.75;;
35795;SDS011;21916;52.428;13.302;2023-05-10T07:09:47;3.78;;;2.72;;
35795;SDS011;21916;52.428;13.302;2023-05-10T07:12:15;6.10;;;2.92;;
35795;SDS011;21916;52.428;13.302;2023-05-10T07:14:41;4.95;;;3.20;;
35795;SDS011;21916;52.428;13.302;2023-05-10T07:17:07;8.23;;;2.88;;
35795;SDS011;21916;52.428;13.302;2023-05-10T07:19:33;9.00;;;2.83;;
35795;SDS011;21916;52.428;13.302;2023-05-10T07:21:59;7.35;;;3.15;;
35795;SDS011;21916;52.428;13.302;2023-05-10T07:24:25;6.43;;;2.92;;
35795;SDS011;21916;52.428;13.302;2023-05-10T07:26:51;4.85;;;2.28;;
35795;SDS011;21916;52.428;13.302;2023-05-10T07:29:17;5.00;;;2.85;;
35795;SDS011;21916;52.428;13.302;2023-05-10T07:31:42;4.90;;;2.50;;
35795;SDS011;21916;52.428;13.302;2023-05-10T07:34:08;7.35;;;2.60;;
35795;SDS011;21916;52.428;13.302;2023-05-10T07:36:35;3.90;;;2.08;;
35795;SDS011;21916;52.428;13.302;2023-05-10T07:39:01;4.65;;;2.85;;
35795;SDS011;21916;52.428;13.302;2023-05-10T07:41:27;7.07;;;2.40;;
35795;SDS011;21916;52.428;13.302;2023-05-10T07:43:53;7.32;;;2.65;;
35795;SDS011;21916;52.428;13.302;2023-05-10T07:46:19;7.03;;;2.50;;
35795;SDS011;21916;52.428;13.302;2023-05-10T07:48:45;3.40;;;2.35;;
35795;SDS011;21916;52.428;13.302;2023-05-10T07:51:11;6.00;;;2.53;;
35795;SDS011;21916;52.428;13.302;2023-05-10T07:53:37;4.10;;;2.63;;
35795;SDS011;21916;52.428;13.302;2023-05-10T07:56:19;5.68;;;2.65;;
35795;SDS011;21916;52.428;13.302;2023-05-10T07:58:51;5.32;;;2.38;;
35795;SDS011;21916;52.428;13.302;2023-05-10T08:01:17;4.35;;;2.67;;
35795;SDS011;21916;52.428;13.302;2023-05-10T08:03:43;3.35;;;2.28;;
35795;SDS011;21916;52.428;13.302;2023-05-10T08:06:09;4.18;;;2.40;;
35795;SDS011;21916;52.428;13.302;2023-05-10T08:08:35;4.75;;;2.95;;
35795;SDS011;21916;52.428;13.302;2023-05-10T08:11:01;2.55;;;2.20;;
35795;SDS011;21916;52.428;13.302;2023-05-10T08:13:27;6.45;;;2.67;;
35795;SDS011;21916;52.428;13.302;2023-05-10T08:15:53;5.63;;;2.67;;
35795;SDS011;21916;52.428;13.302;2023-05-10T08:18:19;4.97;;;2.70;;
35795;SDS011;21916;52.428;13.302;2023-05-10T08:20:45;5.15;;;2.25;;
35795;SDS011;21916;52.428;13.302;2023-05-10T08:23:14;4.90;;;2.78;;
35795;SDS011;21916;52.428;13.302;2023-05-10T08:25:40;3.90;;;2.78;;
35795;SDS011;21916;52.428;13.302;2023-05-10T08:28:07;5.18;;;2.38;;
35795;SDS011;21916;52.428;13.302;2023-05-10T08:30:33;5.00;;;2.42;;
35795;SDS011;21916;52.428;13.302;2023-05-10T08:33:00;4.70;;;2.47;;
35795;SDS011;21916;52.428;13.302;2023-05-10T08:35:26;5.50;;;2.70;;
35795;SDS011;21916;52.428;13.302;2023-05-10T08:37:52;5.32;;;2.70;;
35795;SDS011;21916;52.428;13.302;2023-05-10T08:40:18;5.50;;;2.60;;
35795;SDS011;21916;52.428;13.302;2023-05-10T08:42:48;7.75;;;2.83;;
35795;SDS011;21916;52.428;13.302;2023-05-10T08:45:21;3.88;;;2.58;;
35795;SDS011;21916;52.428;13.302;2023-05-10T08:47:49;3.67;;;2.40;;
35795;SDS011;21916;52.428;13.302;2023-05-10T08:50:18;6.18;;;2.60;;
35795;SDS011;21916;52.428;13.302;2023-05-10T08:52:47;6.05;;;2.85;;
35795;SDS011;21916;52.428;13.302;2023-05-10T08:55:16;8.68;;;2.65;;
35795;SDS011;21916;52.428;13.302;2023-05-10T08:57:42;7.60;;;2.63;;
35795;SDS011;21916;52.428;13.302;2023-05-10T09:00:08;4.72;;;2.55;;
35795;SDS011;21916;52.428;13.302;2023-05-10T09:02:35;5.97;;;2.70;;
35795;SDS011;21916;52.428;13.302;2023-05-10T09:05:02;3.85;;;2.65;;
35795;SDS011;21916;52.428;13.302;2023-05-10T09:07:29;4.95;;;2.70;;
35795;SDS011;21916;52.428;13.302;2023-05-10T09:09:56;4.93;;;2.20;;
35795;SDS011;21916;52.428;13.302;2023-05-10T09:12:22;3.65;;;2.42;;
35795;SDS011;21916;52.428;13.302;2023-05-10T09:14:48;4.63;;;2.63;;
35795;SDS011;21916;52.428;13.302;2023-05-10T09:17:17;5.57;;;2.47;;
35795;SDS011;21916;52.428;13.302;2023-05-10T09:19:44;6.03;;;3.28;;
35795;SDS011;21916;52.428;13.302;2023-05-10T09:22:10;6.72;;;3.03;;
35795;SDS011;21916;52.428;13.302;2023-05-10T09:24:36;4.05;;;2.55;;
35795;SDS011;21916;52.428;13.302;2023-05-10T09:27:08;5.95;;;2.85;;
35795;SDS011;21916;52.428;13.302;2023-05-10T09:29:44;4.35;;;2.72;;
35795;SDS011;21916;52.428;13.302;2023-05-10T09:32:10;6.45;;;2.40;;
35795;SDS011;21916;52.428;13.302;2023-05-10T09:34:36;4.28;;;2.85;;
35795;SDS011;21916;52.428;13.302;2023-05-10T09:37:05;4.38;;;2.88;;
35795;SDS011;21916;52.428;13.302;2023-05-10T09:39:31;7.75;;;2.92;;
35795;SDS011;21916;52.428;13.302;2023-05-10T09:42:01;5.82;;;2.90;;
35795;SDS011;21916;52.428;13.302;2023-05-10T09:44:32;4.53;;;2.35;;
35795;SDS011;21916;52.428;13.302;2023-05-10T09:47:00;3.55;;;2.45;;
35795;SDS011;21916;52.428;13.302;2023-05-10T09:49:27;6.15;;;2.80;;
35795;SDS011;21916;52.428;13.302;2023-05-10T09:52:00;12.32;;;2.70;;
35795;SDS011;21916;52.428;13.302;2023-05-10T09:54:29;3.15;;;2.15;;
35795;SDS011;21916;52.428;13.302;2023-05-10T09:56:55;5.40;;;2.47;;
35795;SDS011;21916;52.428;13.302;2023-05-10T09:59:21;5.13;;;2.35;;
35795;SDS011;21916;52.428;13.302;2023-05-10T10:01:52;4.07;;;2.58;;
35795;SDS011;21916;52.428;13.302;2023-05-10T10:04:22;3.90;;;2.88;;
35795;SDS011;21916;52.428;13.302;2023-05-10T10:07:00;5.05;;;2.85;;
35795;SDS011;21916;52.428;13.302;2023-05-10T10:09:28;5.30;;;3.00;;
35795;SDS011;21916;52.428;13.302;2023-05-10T10:11:54;4.35;;;2.80;;
35795;SDS011;21916;52.428;13.302;2023-05-10T10:14:21;4.70;;;2.45;;
35795;SDS011;21916;52.428;13.302;2023-05-10T10:16:49;5.70;;;2.97;;
35795;SDS011;21916;52.428;13.302;2023-05-10T10:19:16;4.75;;;2.38;;
35795;SDS011;21916;52.428;13.302;2023-05-10T10:21:47;9.18;;;2.85;;
35795;SDS011;21916;52.428;13.302;2023-05-10T10:24:14;5.65;;;2.85;;
35795;SDS011;21916;52.428;13.302;2023-05-10T10:26:40;3.80;;;2.30;;
35795;SDS011;21916;52.428;13.302;2023-05-10T10:35:29;3.50;;;2.17;;
35795;SDS011;21916;52.428;13.302;2023-05-10T10:37:57;4.30;;;2.50;;
35795;SDS011;21916;52.428;13.302;2023-05-10T10:40:32;3.88;;;2.63;;
35795;SDS011;21916;52.428;13.302;2023-05-10T10:45:43;4.85;;;2.35;;
35795;SDS011;21916;52.428;13.302;2023-05-10T10:48:19;4.45;;;2.30;;
35795;SDS011;21916;52.428;13.302;2023-05-10T10:50:47;6.38;;;2.35;;
35795;SDS011;21916;52.428;13.302;2023-05-10T10:53:16;5.18;;;2.75;;
35795;SDS011;21916;52.428;13.302;2023-05-10T10:55:48;6.18;;;2.42;;
35795;SDS011;21916;52.428;13.302;2023-05-10T10:58:30;4.55;;;2.63;;
35795;SDS011;21916;52.428;13.302;2023-05-10T11:01:13;3.43;;;1.80;;
35795;SDS011;21916;52.428;13.302;2023-05-10T11:03:54;3.28;;;2.10;;
35795;SDS011;21916;52.428;13.302;2023-05-10T11:06:41;2.38;;;1.90;;
35795;SDS011;21916;52.428;13.302;2023-05-10T11:09:08;3.03;;;1.67;;
35795;SDS011;21916;52.428;13.302;2023-05-10T11:11:54;3.05;;;1.70;;
35795;SDS011;21916;52.428;13.302;2023-05-10T11:14:21;3.80;;;1.70;;
35795;SDS011;21916;52.428;13.302;2023-05-10T11:16:47;2.78;;;1.98;;
35795;SDS011;21916;52.428;13.302;2023-05-10T11:19:14;6.78;;;2.05;;
35795;SDS011;21916;52.428;13.302;2023-05-10T11:21:45;6.45;;;2.10;;
35795;SDS011;21916;52.428;13.302;2023-05-10T11:24:16;4.78;;;1.83;;
35795;SDS011;21916;52.428;13.302;2023-05-10T11:26:44;3.55;;;1.63;;
35795;SDS011;21916;52.428;13.302;2023-05-10T11:29:11;3.38;;;1.58;;
35795;SDS011;21916;52.428;13.302;2023-05-10T11:31:45;6.20;;;2.00;;
35795;SDS011;21916;52.428;13.302;2023-05-10T11:34:13;2.42;;;1.65;;
35795;SDS011;21916;52.428;13.302;2023-05-10T11:36:55;1.95;;;1.50;;
35795;SDS011;21916;52.428;13.302;2023-05-10T11:39:25;5.90;;;1.85;;
35795;SDS011;21916;52.428;13.302;2023-05-10T11:41:54;5.30;;;1.73;;
35795;SDS011;21916;52.428;13.302;2023-05-10T11:44:20;3.00;;;1.80;;
35795;SDS011;21916;52.428;13.302;2023-05-10T11:46:46;3.63;;;1.73;;
35795;SDS011;21916;52.428;13.302;2023-05-10T11:49:13;3.40;;;1.70;;
35795;SDS011;21916;52.428;13.302;2023-05-10T11:51:39;3.80;;;2.05;;
35795;SDS011;21916;52.428;13.302;2023-05-10T11:54:08;2.85;;;1.95;;
35795;SDS011;21916;52.428;13.302;2023-05-10T11:56:36;3.67;;;1.77;;
35795;SDS011;21916;52.428;13.302;2023-05-10T11:59:03;6.78;;;1.73;;
35795;SDS011;21916;52.428;13.302;2023-05-10T12:01:29;5.65;;;1.73;;
35795;SDS011;21916;52.428;13.302;2023-05-10T12:03:56;6.28;;;1.73;;
35795;SDS011;21916;52.428;13.302;2023-05-10T12:06:27;6.72;;;1.85;;
35795;SDS011;21916;52.428;13.302;2023-05-10T12:08:54;4.50;;;1.67;;
35795;SDS011;21916;52.428;13.302;2023-05-10T12:11:24;2.40;;;1.58;;
35795;SDS011;21916;52.428;13.302;2023-05-10T12:13:50;3.67;;;1.75;;
35795;SDS011;21916;52.428;13.302;2023-05-10T12:18:43;2.15;;;1.88;;
35795;SDS011;21916;52.428;13.302;2023-05-10T12:21:12;6.22;;;2.00;;
35795;SDS011;21916;52.428;13.302;2023-05-10T12:23:40;3.65;;;1.73;;
35795;SDS011;21916;52.428;13.302;2023-05-10T12:26:08;3.63;;;1.88;;
35795;SDS011;21916;52.428;13.302;2023-05-10T12:28:35;3.05;;;1.83;;
35795;SDS011;21916;52.428;13.302;2023-05-10T12:31:02;2.90;;;1.55;;
35795;SDS011;21916;52.428;13.302;2023-05-10T12:33:35;2.42;;;1.65;;
35795;SDS011;21916;52.428;13.302;2023-05-10T12:36:04;3.85;;;1.85;;
35795;SDS011;21916;52.428;13.302;2023-05-10T12:38:35;3.67;;;1.90;;
35795;SDS011;21916;52.428;13.302;2023-05-10T12:41:07;2.85;;;1.65;;
35795;SDS011;21916;52.428;13.302;2023-05-10T12:43:34;3.08;;;1.50;;
35795;SDS011;21916;52.428;13.302;2023-05-10T12:46:07;6.95;;;1.85;;
35795;SDS011;21916;52.428;13.302;2023-05-10T12:48:35;3.10;;;1.85;;
35795;SDS011;21916;52.428;13.302;2023-05-10T12:51:03;2.53;;;1.85;;
35795;SDS011;21916;52.428;13.302;2023-05-10T12:53:30;2.70;;;1.90;;
35795;SDS011;21916;52.428;13.302;2023-05-10T12:55:56;5.10;;;1.83;;
35795;SDS011;21916;52.428;13.302;2023-05-10T12:58:22;2.67;;;1.65;;
35795;SDS011;21916;52.428;13.302;2023-05-10T13:00:48;3.88;;;2.05;;
35795;SDS011;21916;52.428;13.302;2023-05-10T13:03:16;2.42;;;2.17;;
35795;SDS011;21916;52.428;13.302;2023-05-10T13:05:43;4.00;;;1.60;;
35795;SDS011;21916;52.428;13.302;2023-05-10T13:08:09;4.75;;;2.00;;
35795;SDS011;21916;52.428;13.302;2023-05-10T13:10:35;3.75;;;1.90;;
35795;SDS011;21916;52.428;13.302;2023-05-10T13:13:01;2.63;;;1.90;;
35795;SDS011;21916;52.428;13.302;2023-05-10T13:15:27;2.67;;;1.77;;
35795;SDS011;21916;52.428;13.302;2023-05-10T13:17:53;6.25;;;1.77;;
35795;SDS011;21916;52.428;13.302;2023-05-10T13:20:19;3.47;;;1.67;;
35795;SDS011;21916;52.428;13.302;2023-05-10T13:22:45;3.33;;;1.67;;
35795;SDS011;21916;52.428;13.302;2023-05-10T13:25:12;2.70;;;1.67;;
35795;SDS011;21916;52.428;13.302;2023-05-10T13:27:39;4.20;;;1.98;;
35795;SDS011;21916;52.428;13.302;2023-05-10T13:30:06;3.30;;;1.83;;
35795;SDS011;21916;52.428;13.302;2023-05-10T13:32:33;2.03;;;1.60;;
35795;SDS011;21916;52.428;13.302;2023-05-10T13:34:59;2.33;;;1.58;;
35795;SDS011;21916;52.428;13.302;2023-05-10T13:37:26;3.25;;;1.90;;
35795;SDS011;21916;52.428;13.302;2023-05-10T13:39:52;4.70;;;1.85;;
35795;SDS011;21916;52.428;13.302;2023-05-10T13:42:18;4.25;;;1.90;;
35795;SDS011;21916;52.428;13.302;2023-05-10T13:44:44;3.15;;;1.85;;
35795;SDS011;21916;52.428;13.302;2023-05-10T13:47:09;4.22;;;1.80;;
35795;SDS011;21916;52.428;13.302;2023-05-10T13:49:36;2.55;;;2.00;;
35795;SDS011;21916;52.428;13.302;2023-05-10T13:52:03;2.40;;;1.70;;
35795;SDS011;21916;52.428;13.302;2023-05-10T13:54:41;3.33;;;1.75;;
35795;SDS011;21916;52.428;13.302;2023-05-10T13:57:06;3.92;;;1.92;;
35795;SDS011;21916;52.428;13.302;2023-05-10T13:59:32;3.17;;;1.85;;
35795;SDS011;21916;52.428;13.302;2023-05-10T14:02:00;4.22;;;1.92;;
35795;SDS011;21916;52.428;13.302;2023-05-10T14:04:28;2.10;;;1.90;;
35795;SDS011;21916;52.428;13.302;2023-05-10T14:06:54;3.30;;;1.55;;
35795;SDS011;21916;52.428;13.302;2023-05-10T14:09:20;3.83;;;1.90;;
35795;SDS011;21916;52.428;13.302;2023-05-10T14:11:46;3.05;;;2.05;;
35795;SDS011;21916;52.428;13.302;2023-05-10T14:14:12;3.70;;;1.90;;
35795;SDS011;21916;52.428;13.302;2023-05-10T14:16:41;6.47;;;1.92;;
35795;SDS011;21916;52.428;13.302;2023-05-10T14:19:08;3.40;;;2.10;;
35795;SDS011;21916;52.428;13.302;2023-05-10T14:21:34;5.78;;;1.95;;
35795;SDS011;21916;52.428;13.302;2023-05-10T14:24:00;4.53;;;1.73;;
35795;SDS011;21916;52.428;13.302;2023-05-10T14:26:26;1.55;;;1.40;;
35795;SDS011;21916;52.428;13.302;2023-05-10T14:28:52;3.92;;;2.00;;
35795;SDS011;21916;52.428;13.302;2023-05-10T14:31:18;5.45;;;1.75;;
35795;SDS011;21916;52.428;13.302;2023-05-10T14:33:49;6.20;;;1.90;;
35795;SDS011;21916;52.428;13.302;2023-05-10T14:36:15;3.10;;;1.88;;
35795;SDS011;21916;52.428;13.302;2023-05-10T14:38:41;2.78;;;2.05;;
35795;SDS011;21916;52.428;13.302;2023-05-10T14:41:07;5.35;;;2.22;;
35795;SDS011;21916;52.428;13.302;2023-05-10T14:43:33;2.75;;;2.03;;
35795;SDS011;21916;52.428;13.302;2023-05-10T14:45:59;5.55;;;2.25;;
35795;SDS011;21916;52.428;13.302;2023-05-10T14:48:25;4.70;;;1.90;;
35795;SDS011;21916;52.428;13.302;2023-05-10T14:50:51;5.00;;;2.10;;
35795;SDS011;21916;52.428;13.302;2023-05-10T14:53:17;3.95;;;1.88;;
35795;SDS011;21916;52.428;13.302;2023-05-10T14:55:43;3.60;;;2.17;;
35795;SDS011;21916;52.428;13.302;2023-05-10T14:58:09;3.85;;;2.10;;
35795;SDS011;21916;52.428;13.302;2023-05-10T15:00:35;2.05;;;1.63;;
35795;SDS011;21916;52.428;13.302;2023-05-10T15:03:02;3.22;;;1.70;;
35795;SDS011;21916;52.428;13.302;2023-05-10T15:05:28;3.03;;;1.90;;
35795;SDS011;21916;52.428;13.302;2023-05-10T15:07:54;4.03;;;2.17;;